neil on the web!

ADDS Results

0400 UTC 21 January 2020

EGJB 210350Z 06004KT 9999 FEW017 07/03 Q1042
EGJB 210250Z 04005KT 9999 FEW017 07/04 Q1042
TAF EGJB 210159Z 2103/2112 06005KT CAVOK
PROB30
TEMPO 2105/2112 8000 BKN006
EGJJ 210350Z AUTO 09004KT 9999 SCT018/// 06/02 Q1041
EGJJ 210320Z AUTO 09004KT 9999 FEW014/// 06/02 Q1041
EGJJ 210250Z AUTO 10003KT 9999 NCD 06/02 Q1042
EGJJ 210220Z AUTO 08005KT 9999 NCD 06/02 Q1042
TAF EGJJ 210159Z 2103/2112 07005KT CAVOK
PROB40
TEMPO 2104/2112 5000 BR BKN004
EGKK 210350Z 14001KT 8000 NSC M02/M03 Q1042
EGKK 210320Z 19002KT 7000 NSC M02/M02 Q1043
EGKK 210250Z VRB01KT 8000 NSC M02/M02 Q1043
EGKK 210220Z 33002KT 8000 NSC M02/M02 Q1043
TAF EGKK 202303Z 2100/2206 VRB03KT CAVOK
BECMG 2100/2103 7000
BECMG 2102/2105 3000 BR MIFG
PROB40 2104/2111 0300 FZFG VV///
BECMG 2110/2113 CAVOK
PROB40
TEMPO 2111/2113 BKN005
PROB40
TEMPO 2113/2118 9000
BECMG 2118/2121 3000 BR MIFG
PROB30
TEMPO 2119/2206 0600 FG FZFG BKN000
TEMPO 2200/2206 BKN005
EGSS 210350Z 25003KT 1800 BR NSC M01/M01 Q1042
EGSS 210320Z 25003KT 4100 BR NSC M01/M01 Q1042
EGSS 210250Z 22007KT 3000 BR NSC M01/M01 Q1042
EGSS 210220Z 22006KT 3300 BR NSC M01/M02 Q1043
TAF AMD EGSS 210043Z 2100/2206 28004KT 9999 FEW030
BECMG 2100/2103 8000
TEMPO 2100/2103 1200 BR
PROB30 2101/2111 0200 FG FZFG VV///
BECMG 2110/2113 9999
TEMPO 2111/2114 BKN006
BECMG 2116/2119 8000 BKN012
TEMPO 2118/2124 3000 BR BKN005
BECMG 2200/2203 3000 BR BKN003
PROB40 2201/2206 0200 FG VV///
EGGW 210350Z AUTO 23005KT 3000 BR NCD M00/M01 Q1042
EGGW 210320Z AUTO 22005KT 1400 R26/P1500 BR NCD M01/M01 Q1042
EGGW 210250Z AUTO 20005KT 3700 BR NCD M01/M01 Q1042
EGGW 210220Z AUTO 23003KT 3600 BR NCD M00/M01 Q1042
TAF EGGW 202302Z 2100/2124 30006KT 9999 FEW030
BECMG 2100/2103 8000
PROB30 2100/2111 0200 FG FZFG VV///
BECMG 2110/2113 9999
TEMPO 2111/2114 BKN004
BECMG 2116/2119 8000 BKN010
TEMPO 2118/2124 3000 BR BKN003
EGSH 210350Z AUTO 22006KT 4700 HZ NCD 00/M01 Q1041
EGSH 210320Z AUTO 20006KT 5000 HZ NCD 00/M01 Q1042
EGSH 210250Z AUTO 20006KT 6000 NCD M00/M01 Q1042
EGSH 210220Z AUTO 20006KT 6000 NCD M01/M01 Q1042
TAF EGSH 210155Z 2103/2112 23005KT 7000 FEW040
BECMG 2103/2106 6000
PROB40 2103/2112 3000 BR
EGLC 210350Z AUTO 23003KT 9999 NCD 02/00 Q1043
EGLC 210320Z AUTO 22004KT 9999 NCD 02/00 Q1043
EGLC 210250Z AUTO 23003KT 9999 NCD 02/00 Q1043
EGLC 210220Z AUTO 23004KT 9999 NCD 02/00 Q1043
TAF EGLC 210157Z 2103/2112 24004KT CAVOK
BECMG 2103/2106 7000
TEMPO 2104/2111 4000 BR
PROB40
TEMPO 2105/2110 1200 BCFG
PROB30
TEMPO 2109/2111 BKN006
EGMC 210350Z 20002KT 8000 NSC M02/M03 Q1042
EGMC 210250Z 27003KT 8000 NSC M02/M02 Q1043
EGMC 210220Z VRB02KT 8000 NSC M01/M01 Q1043
TAF EGMC 210157Z 2103/2112 25003KT 8000 NSC
PROB40 2103/2111 3000 BR
PROB30
TEMPO 2109/2112 BKN005
EGLL 210350Z 30003KT 4500 BR NSC M02/M02 Q1043 TEMPO 2000
EGLL 210320Z 31002KT 4500 BR VCFG NSC M00/M01 Q1043 TEMPO 2000
EGLL 210250Z 32002KT 5000 BR NSC M01/M01 Q1043 TEMPO 2000
EGLL 210220Z 29002KT 5000 2000NW BR VCFG NSC M01/M01 Q1044 TEMPO 3000
TAF AMD EGLL 210005Z 2100/2206 VRB03KT 6000 NSC
TEMPO 2100/2112 2500 BR VCFG
PROB40 2103/2110 0200 FZFG VV///
PROB40
TEMPO 2110/2112 BKN003
BECMG 2112/2115 CAVOK
BECMG 2117/2120 6000
TEMPO 2120/2202 3000 BR BKN008
TEMPO 2202/2206 2000 BR BKN003
PROB30
TEMPO 2203/2206 0300 FG BKN000
TAF EGHI 202000Z 2021/2023 31002KT 9000 FEW045
PROB30 2021/2023 2000 BR MIFG
TAF EGHH 202000Z 2021/2106 30002KT 9999 FEW045
TEMPO 2021/2103 3000 BR MIFG
PROB40 2021/2106 0300 FZFG BKN001
EGCC 210350Z AUTO 17003KT 3400 BR OVC021 03/02 Q1041
EGCC 210320Z AUTO VRB03KT 4200 BR OVC021 03/02 Q1042 TEMPO 9999 NSW
EGCC 210250Z VRB03KT 9999 OVC021 03/02 Q1042 TEMPO 7000
EGCC 210220Z 17003KT 9999 OVC022 03/02 Q1042 TEMPO 7000
TAF EGCC 202301Z 2100/2206 VRB03KT 9999 FEW020 SCT025
TEMPO 2100/2111 2000 BR BKN014
BECMG 2111/2114 SCT003 BKN006
TEMPO 2113/2117 3000 BR BKN003
PROB30
TEMPO 2115/2118 0300 FG OVC000
BECMG 2117/2120 2000 BR BKN003
PROB40 2118/2206 0300 FG BKN001
EGNX 210350Z 24008KT 9999 SCT020 01/01 Q1041
EGNX 210320Z 23006KT CAVOK 01/00 Q1041
EGNX 210250Z 25008KT CAVOK 01/01 Q1041
EGNX 210220Z 25009KT CAVOK 02/01 Q1041
TAF EGNX 202306Z 2100/2124 23007KT 9999 FEW045
TEMPO 2100/2110 8000
PROB40
TEMPO 2100/2110 4000 BR BKN010
TEMPO 2114/2124 8000 BKN010
PROB30
TEMPO 2118/2124 BKN006
EGGP 210350Z 27004KT 9999 BKN026 06/06 Q1042
EGGP 210320Z VRB02KT 9999 BKN026 05/05 Q1042
EGGP 210250Z 23003KT 9999 BKN026 05/05 Q1042
EGGP 210220Z 20004KT 9999 BKN026 04/04 Q1042
TAF EGGP 202301Z 2100/2124 24004KT 9999 FEW015 SCT025
PROB40
TEMPO 2100/2109 BKN014
TEMPO 2109/2112 BKN008
BECMG 2112/2115 SCT004 BKN008
TEMPO 2114/2124 4000 BR BKN004
EGNM 210320Z 28012KT CAVOK 05/02 Q1040
EGNM 210250Z 27014KT CAVOK 05/02 Q1040
EGNM 210220Z 27014KT CAVOK 05/02 Q1040
TAF EGNM 202305Z 2100/2124 27017KT 9999 FEW015 SCT025
BECMG 2100/2103 27007KT
PROB40
TEMPO 2100/2124 BKN008
EGBB 210350Z 26003KT 9000 MIFG NSC 02/01 Q1042
EGBB 210320Z 28001KT 9000 MIFG NSC M00/M01 Q1042
EGBB 210250Z 27002KT 9000 MIFG NSC 00/M01 Q1042
EGBB 210220Z 27004KT 9000 MIFG NSC 02/01 Q1042
TAF EGBB 202306Z 2100/2124 25004KT 9999 FEW045
TEMPO 2100/2110 2000 BR BCFG
PROB40
TEMPO 2101/2110 0200 FZFG FG BKN001
BECMG 2116/2118 8000 BKN010
PROB30
TEMPO 2119/2124 BKN006
EGGD 210350Z AUTO 11003KT 9999 NCD 02/01 Q1042
EGGD 210320Z AUTO 13002KT 9999 NCD 01/00 Q1042
EGGD 210250Z AUTO 10002KT 9999 NCD 01/00 Q1042
EGGD 210220Z AUTO 13001KT 9999 NCD 02/01 Q1043
TAF EGGD 202302Z 2100/2124 VRB03KT 9999 FEW030
TEMPO 2100/2112 8000
PROB30
TEMPO 2106/2111 1200 BR MIFG BKN001
TEMPO 2121/2124 BKN004
EGFF 210350Z AUTO 02003KT 9999 NCD 01/01 Q1043
EGFF 210320Z AUTO 35004KT 9999 NCD 01/00 Q1043
EGFF 210250Z AUTO 33003KT 9999 NCD 03/02 Q1043
EGFF 210220Z AUTO 36002KT 9999 NCD 02/02 Q1043
TAF EGFF 202302Z 2100/2124 VRB03KT 9999 FEW020
PROB30 2100/2110 3000 BR
EGTE 210350Z 01002KT 4000 BR NSC M03/M03 Q1043
EGTE 210250Z 07003KT 9000 NSC M01/M01 Q1043
EGTE 210220Z 36003KT 4500 MIFG BR FEW000 M01/M01 Q1043
TAF EGTE 202303Z 2100/2109 VRB02KT 9999 FEW030
PROB40 2100/2103 0300 FZFG VV///
EGPF 210350Z AUTO 23010KT 9999 OVC009 08/07 Q1039
EGPF 210320Z AUTO 23008KT 9999 OVC010 08/07 Q1039
EGPF 210250Z AUTO 22006KT 9999 OVC011 08/07 Q1039
EGPF 210220Z AUTO 21013KT 9999 OVC011 08/07 Q1039
TAF EGPF 202255Z 2100/2124 22012KT 9999 BKN020
TEMPO 2100/2124 7000 -RA BKN010
PROB40
TEMPO 2103/2124 4000 RADZ BKN004
EGPH 210350Z 23014KT 9999 OVC011 08/07 Q1038
EGPH 210320Z 24014KT 9999 OVC011 08/07 Q1038
EGPH 210250Z 24015KT 9999 OVC011 08/07 Q1038
EGPH 210220Z 24007KT 9999 OVC013 08/06 Q1038
TAF AMD EGPH 210206Z 2102/2124 24012KT 9999 BKN025
TEMPO 2102/2124 BKN012
PROB40
TEMPO 2103/2124 7000 -RADZ BKN006
EGPK 210250Z 21010KT 9999 FEW017 BKN022 08/06 Q1040
TAF EGPK 202255Z 2100/2124 20009KT 9999 BKN025
BECMG 2103/2106 BKN010
PROB40
TEMPO 2106/2124 7000 -DZ BKN006
PROB30
TEMPO 2115/2124 3000 RADZ BR BKN003
EHAM 210355Z 20008KT 0500 R18C/0550N R27/0700N R18R/0550N R06/1000U FG BKN000
02/02 Q1042 BECMG 1200 BR NSC
EHAM 210325Z 18008KT 0400 R18C/0650N R27/0550N R18R/0600N R06/0700N FG BKN000
02/02 Q1043 NOSIG
EHAM 210255Z 18006KT 0350 R18C/0650N R27/0550N R18R/0550U R06/0550N FG BKN000
01/01 Q1043 NOSIG
EHAM 210225Z 16005KT 0250 R18C/0300N R27/0350N R18R/0350N R06/0500U FG BKN000
02/01 Q1043 NOSIG
TAF AMD EHAM 210357Z 2103/2206 21008KT 0500 FG BKN001
BECMG 2103/2105 1600 BR NSC
PROB30 2103/2109 1200 BCFG
BECMG 2109/2112 4500
BECMG 2112/2115 8000 NSW
BECMG 2117/2120 6000
BECMG 2120/2123 4000 BR BKN012
BECMG 2201/2204 2000 BKN004
PROB40 2201/2206 0500 FG BKN001
LFLS 210330Z AUTO 00000KT 9000 NSC M01/M02 Q1036 TEMPO 4000 BR
LFLS 210300Z AUTO 13001KT 8000 NSC M01/M02 Q1037 TEMPO 4000 BR
LFLS 210230Z AUTO 17003KT 7000 NSC M01/M02 Q1037 TEMPO 4000 BR
TAF LFLS 210200Z 2103/2203 VRB02KT CAVOK
PROB30
TEMPO 2103/2109 4000 BR
LFLL 210330Z VRB02KT CAVOK M00/M02 Q1037 NOSIG
LFLL 210300Z 00000KT CAVOK M00/M03 Q1037 NOSIG
LFLL 210230Z 00000KT CAVOK M00/M02 Q1038 NOSIG
TAF LFLL 202300Z 2100/2206 VRB02KT CAVOK
PROB40 2105/2109 4000 BR
PROB30 2106/2108 0700 FZFG VV///
PROB40 2205/2206 4000 BR
LFLC 210330Z AUTO VRB01KT CAVOK M03/M05 Q1037 TEMPO 0600 FZFG VV///
LFLC 210300Z AUTO VRB02KT CAVOK M02/M04 Q1037 TEMPO 0600 FZFG VV///
LFLC 210230Z AUTO 15001KT CAVOK M02/M04 Q1037 TEMPO 0600 FZFG VV///
TAF LFLC 210200Z 2103/2203 VRB02KT CAVOK
PROB40
TEMPO 2103/2110 3000 BR
PROB30
TEMPO 2103/2109 0600 FZFG VV///
LFRD 210330Z AUTO 08006KT CAVOK 06/03 Q1041 NOSIG
LFRD 210300Z AUTO 07007KT CAVOK 06/03 Q1042 NOSIG
LFRD 210230Z AUTO 07007KT CAVOK 06/03 Q1042 NOSIG
TAF LFRD 202300Z 2100/2124 VRB05KT CAVOK
PROB30
TEMPO 2106/2109 4000 BR
BECMG 2112/2114 06010KT
BECMG 2121/2124 VRB04KT
LFRC 210330Z AUTO 12004KT CAVOK 05/01 Q1042
LFRC 210300Z AUTO 09003KT CAVOK 05/01 Q1042
LFRC 210230Z AUTO 08002KT CAVOK 05/M00 Q1042
VHHH 210330Z 10015KT 9999 FEW020 22/14 Q1024 NOSIG
VHHH 210300Z 10015KT 9999 FEW020 21/14 Q1024 NOSIG
VHHH 210230Z 09015KT 9999 FEW020 21/14 Q1025 NOSIG
TAF VHHH 202300Z 2100/2206 09010KT 9000 FEW030 TX21/2106Z TX23/2206Z TN19/2123Z
TEMPO 2109/2113 09015G25KT
TEMPO 2204/2206 28010KT